createdAt,value
2024-03-01T00:00:46.601Z,37.33
2024-03-01T00:03:16.967Z,40.45
2024-03-01T00:05:50.008Z,40.70
2024-03-01T00:08:20.650Z,38.70
2024-03-01T00:10:55.179Z,40.47
2024-03-01T00:13:25.695Z,39.65
2024-03-01T00:15:56.578Z,38.03
2024-03-01T00:18:27.355Z,40.17
2024-03-01T00:20:59.993Z,29.92
2024-03-01T00:23:30.028Z,38.60
2024-03-01T00:26:00.692Z,40.90
2024-03-01T00:28:30.872Z,36.33
2024-03-01T00:31:01.171Z,39.05
2024-03-01T00:33:31.583Z,39.40
2024-03-01T00:36:04.838Z,39.72
2024-03-01T00:38:35.452Z,42.55
2024-03-01T00:41:05.566Z,40.28
2024-03-01T00:43:36.528Z,37.70
2024-03-01T00:46:07.151Z,41.33
2024-03-01T00:48:37.301Z,41.22
2024-03-01T00:51:10.637Z,38.05
2024-03-01T00:53:40.706Z,41.80
2024-03-01T00:56:11.122Z,41.67
2024-03-01T00:58:41.485Z,41.40
2024-03-01T01:01:12.796Z,38.55
2024-03-01T01:03:43.359Z,42.22
2024-03-01T01:06:17.318Z,41.60
2024-03-01T01:08:47.454Z,37.45
2024-03-01T01:11:17.744Z,40.67
2024-03-01T01:13:47.814Z,39.65
2024-03-01T01:16:17.850Z,38.67
2024-03-01T01:18:47.912Z,40.88
2024-03-01T01:21:20.527Z,37.15
2024-03-01T01:23:50.581Z,38.67
2024-03-01T01:26:22.225Z,40.63
2024-03-01T01:28:53.229Z,35.45
2024-03-01T01:31:24.002Z,40.53
2024-03-01T01:33:54.065Z,33.40
2024-03-01T01:36:26.870Z,39.35
2024-03-01T01:38:57.032Z,41.40
2024-03-01T01:41:27.270Z,38.58
2024-03-01T01:44:00.498Z,40.95
2024-03-01T01:46:31.471Z,41.78
2024-03-01T01:49:02.316Z,40.17
2024-03-01T01:51:37.473Z,41.00
2024-03-01T01:54:07.936Z,40.67
2024-03-01T01:56:35.824Z,44.58
2024-03-01T01:59:06.009Z,44.90
2024-03-01T02:01:36.417Z,44.20
2024-03-01T02:04:07.895Z,46.33
2024-03-01T02:06:40.521Z,38.95
2024-03-01T02:09:19.590Z,43.90
2024-03-01T02:11:50.581Z,44.78
2024-03-01T02:14:21.106Z,43.85
2024-03-01T02:16:52.042Z,41.75
2024-03-01T02:19:22.757Z,44.55
2024-03-01T02:22:01.512Z,43.22
2024-03-01T02:24:34.808Z,46.53
2024-03-01T02:27:05.034Z,41.47
2024-03-01T02:29:35.384Z,41.03
2024-03-01T02:32:06.252Z,42.92
2024-03-01T02:34:36.211Z,41.55
2024-03-01T02:37:09.526Z,39.65
2024-03-01T02:39:42.325Z,37.55
2024-03-01T02:42:12.578Z,35.88
2024-03-01T02:44:42.763Z,35.85
2024-03-01T02:47:12.807Z,41.60
2024-03-01T02:49:43.555Z,41.83
2024-03-01T02:52:16.869Z,43.33
2024-03-01T02:54:49.964Z,38.35
2024-03-01T02:57:20.224Z,40.85
2024-03-01T02:59:50.431Z,42.00
2024-03-01T03:02:20.563Z,41.85
2024-03-01T03:04:54.318Z,41.63
2024-03-01T03:07:24.535Z,44.25
2024-03-01T03:09:57.282Z,42.33
2024-03-01T03:12:27.403Z,45.35
2024-03-01T03:14:57.556Z,44.13
2024-03-01T03:17:27.451Z,43.22
2024-03-01T03:19:58.135Z,45.97
2024-03-01T03:22:29.038Z,43.13
2024-03-01T03:25:01.847Z,43.83
2024-03-01T03:27:31.831Z,43.67
2024-03-01T03:30:02.000Z,45.72
2024-03-01T03:32:32.123Z,44.38
2024-03-01T03:35:02.201Z,41.40
2024-03-01T03:37:30.205Z,44.95
2024-03-01T03:40:15.855Z,35.70
2024-03-01T03:42:46.284Z,44.47
2024-03-01T03:45:16.356Z,43.78
2024-03-01T03:47:46.346Z,44.95
2024-03-01T03:50:17.956Z,40.38
2024-03-01T03:52:48.599Z,45.40
2024-03-01T03:55:21.508Z,40.85
2024-03-01T03:57:51.726Z,45.22
2024-03-01T04:00:22.022Z,44.95
2024-03-01T04:02:52.426Z,41.97
2024-03-01T04:05:23.536Z,44.75
2024-03-01T04:07:53.440Z,39.92
2024-03-01T04:10:26.548Z,44.67
2024-03-01T04:12:56.745Z,43.80
2024-03-01T04:15:28.150Z,43.55
2024-03-01T04:17:59.115Z,43.20
2024-03-01T04:20:29.078Z,39.85
2024-03-01T04:22:59.196Z,42.47
2024-03-01T04:25:33.592Z,43.40
2024-03-01T04:28:03.577Z,40.08
2024-03-01T04:30:33.687Z,39.55
2024-03-01T04:33:05.901Z,40.95
2024-03-01T04:35:35.887Z,41.55
2024-03-01T04:38:10.417Z,41.38
2024-03-01T04:40:43.323Z,42.70
2024-03-01T04:43:13.420Z,41.30
2024-03-01T04:45:43.513Z,41.60
2024-03-01T04:48:13.516Z,40.83
2024-03-01T04:50:44.067Z,41.03
2024-03-01T04:53:14.121Z,39.65
2024-03-01T04:55:48.963Z,43.15
2024-03-01T04:58:19.389Z,40.35
2024-03-01T05:00:49.899Z,39.28
2024-03-01T05:03:20.927Z,40.05
2024-03-01T05:05:51.095Z,41.95
2024-03-01T05:08:21.128Z,39.85
2024-03-01T05:10:54.416Z,39.45
2024-03-01T05:13:24.867Z,41.55
2024-03-01T05:15:55.553Z,39.42
2024-03-01T05:18:26.165Z,40.85
2024-03-01T05:20:56.696Z,39.45
2024-03-01T05:23:26.595Z,40.42
2024-03-01T05:25:59.437Z,38.45
2024-03-01T05:28:29.970Z,39.30
2024-03-01T05:31:07.267Z,39.92
2024-03-01T05:33:45.399Z,41.22
2024-03-01T05:36:15.503Z,39.63
2024-03-01T05:38:45.641Z,41.65
2024-03-01T05:41:18.181Z,39.75
2024-03-01T05:43:48.340Z,41.50
2024-03-01T05:46:18.864Z,39.65
2024-03-01T05:48:48.761Z,40.40
2024-03-01T05:51:18.807Z,41.75
2024-03-01T05:53:48.776Z,40.95
2024-03-01T05:56:21.260Z,27.45
2024-03-01T05:58:54.914Z,33.60
2024-03-01T06:01:25.396Z,15.35
2024-03-01T06:03:55.443Z,32.10
2024-03-01T06:06:25.388Z,42.67
2024-03-01T06:08:55.393Z,37.95
2024-03-01T06:11:28.244Z,38.20
2024-03-01T06:13:58.661Z,34.72
2024-03-01T06:16:30.044Z,41.40
2024-03-01T06:19:01.471Z,42.50
2024-03-01T06:21:31.724Z,40.63
2024-03-01T06:24:01.665Z,40.72
2024-03-01T06:26:34.124Z,41.15
2024-03-01T06:29:06.337Z,42.05
2024-03-01T06:31:36.431Z,38.78
2024-03-01T06:34:06.519Z,39.50
2024-03-01T06:36:36.466Z,38.88
2024-03-01T06:39:07.655Z,40.13
2024-03-01T06:41:40.250Z,39.17
2024-03-01T06:44:10.365Z,37.97
2024-03-01T06:46:40.599Z,21.55
2024-03-01T06:49:11.993Z,34.47
2024-03-01T06:51:41.904Z,33.13
2024-03-01T06:54:11.805Z,24.00
2024-03-01T06:56:46.642Z,26.45
2024-03-01T06:59:17.170Z,20.75
2024-03-01T07:01:47.502Z,23.63
2024-03-01T07:04:17.721Z,36.97
2024-03-01T07:06:48.446Z,37.47
2024-03-01T07:09:20.872Z,33.97
2024-03-01T07:11:53.911Z,39.80
2024-03-01T07:14:23.830Z,40.85
2024-03-01T07:16:53.850Z,36.70
2024-03-01T07:19:24.009Z,37.95
2024-03-01T07:21:54.386Z,33.63
2024-03-01T07:24:24.460Z,32.38
2024-03-01T07:26:57.086Z,35.28
2024-03-01T07:29:30.280Z,35.55
2024-03-01T07:32:03.420Z,31.83
2024-03-01T07:34:34.242Z,32.88
2024-03-01T07:37:04.786Z,37.42
2024-03-01T07:39:34.951Z,35.08
2024-03-01T07:42:08.556Z,32.05
2024-03-01T07:44:38.880Z,35.03
2024-03-01T07:47:09.597Z,26.15
2024-03-01T07:49:39.882Z,25.55
2024-03-01T07:52:10.452Z,33.28
2024-03-01T07:54:40.748Z,32.33
2024-03-01T07:57:13.566Z,33.70
2024-03-01T07:59:43.778Z,33.75
2024-03-01T08:02:14.089Z,30.80
2024-03-01T08:04:44.444Z,29.58
2024-03-01T08:07:18.268Z,32.30
2024-03-01T08:09:49.242Z,30.70
2024-03-01T08:12:22.087Z,27.90
2024-03-01T08:14:55.356Z,30.95
2024-03-01T08:17:25.640Z,21.83
2024-03-01T08:19:56.429Z,23.65
2024-03-01T08:22:26.750Z,28.80
2024-03-01T08:24:59.258Z,28.83
2024-03-01T08:27:33.693Z,27.25
2024-03-01T08:30:03.886Z,26.38
2024-03-01T08:32:36.821Z,23.95
2024-03-01T08:35:08.494Z,24.42
2024-03-01T08:37:38.489Z,25.83
2024-03-01T08:40:30.716Z,27.50
2024-03-01T08:43:03.506Z,22.02
2024-03-01T08:45:43.750Z,22.60
2024-03-01T08:48:20.320Z,20.35
2024-03-01T08:50:52.896Z,23.58
2024-03-01T08:53:55.526Z,26.33
2024-03-01T08:56:27.513Z,25.83
2024-03-01T08:59:01.537Z,24.10
2024-03-01T09:01:50.730Z,22.52
2024-03-01T09:04:30.956Z,27.83
2024-03-01T09:07:17.456Z,28.00
2024-03-01T09:09:48.088Z,26.30
2024-03-01T09:12:27.709Z,27.88
2024-03-01T09:15:04.098Z,27.60
2024-03-01T09:17:35.290Z,26.58
2024-03-01T09:20:09.930Z,26.48
2024-03-01T09:22:40.581Z,26.05
2024-03-01T09:25:17.688Z,25.63
2024-03-01T09:27:48.690Z,24.45
2024-03-01T09:30:28.025Z,24.15
2024-03-01T09:32:58.256Z,25.23
2024-03-01T09:35:30.640Z,24.27
2024-03-01T09:38:01.729Z,25.80
2024-03-01T09:40:58.868Z,23.23
2024-03-01T09:43:39.589Z,24.27
2024-03-01T09:46:22.500Z,22.75
2024-03-01T09:49:08.810Z,22.67
2024-03-01T09:51:52.974Z,22.85
2024-03-01T09:54:34.072Z,22.63
2024-03-01T09:57:13.788Z,22.52
2024-03-01T09:59:50.244Z,18.88
2024-03-01T10:02:36.118Z,23.23
2024-03-01T10:05:21.787Z,21.02
2024-03-01T10:08:02.686Z,23.23
2024-03-01T10:10:44.941Z,23.30
2024-03-01T10:13:25.118Z,19.08
2024-03-01T10:16:09.204Z,21.80
2024-03-01T10:18:58.172Z,21.17
2024-03-01T10:21:33.847Z,18.90
2024-03-01T10:24:21.664Z,21.77
2024-03-01T10:27:06.231Z,20.92
2024-03-01T10:29:50.317Z,20.33
2024-03-01T10:32:32.848Z,20.35
2024-03-01T10:35:14.307Z,21.17
2024-03-01T10:38:02.535Z,17.35
2024-03-01T10:40:36.376Z,21.98
2024-03-01T10:43:15.067Z,20.27
2024-03-01T10:45:54.155Z,22.10
2024-03-01T10:48:24.689Z,21.58
2024-03-01T10:51:06.061Z,20.67
2024-03-01T10:53:40.613Z,21.33
2024-03-01T10:56:14.214Z,20.23
2024-03-01T10:58:50.208Z,22.95
2024-03-01T11:01:30.555Z,23.10
2024-03-01T11:04:07.090Z,17.13
2024-03-01T11:06:50.493Z,20.88
2024-03-01T11:09:29.053Z,19.25
2024-03-01T11:12:07.486Z,19.80
2024-03-01T11:14:45.060Z,19.38
2024-03-01T11:17:15.815Z,21.67
2024-03-01T11:19:49.315Z,20.15
2024-03-01T11:22:27.856Z,21.15
2024-03-01T11:25:08.309Z,19.88
2024-03-01T11:27:49.240Z,20.48
2024-03-01T11:30:24.130Z,17.08
2024-03-01T11:33:02.339Z,17.13
2024-03-01T11:35:41.403Z,19.48
2024-03-01T11:38:27.305Z,19.38
2024-03-01T11:41:11.928Z,21.25
2024-03-01T11:43:57.937Z,19.65
2024-03-01T11:46:42.160Z,18.52
2024-03-01T11:49:26.296Z,18.42
2024-03-01T11:52:10.556Z,18.02
2024-03-01T11:55:00.633Z,17.55
2024-03-01T11:57:41.053Z,19.20
2024-03-01T12:00:39.977Z,19.17
2024-03-01T12:03:34.558Z,15.57
2024-03-01T12:06:13.919Z,16.38
2024-03-01T12:08:57.099Z,16.67
2024-03-01T12:14:38.894Z,16.95
2024-03-01T12:17:17.780Z,16.63
2024-03-01T12:20:06.879Z,11.50
2024-03-01T12:23:02.438Z,16.23
2024-03-01T12:25:33.034Z,16.60
2024-03-01T12:28:21.607Z,16.15
2024-03-01T12:31:07.042Z,16.25
2024-03-01T12:33:58.488Z,16.63
2024-03-01T12:36:48.792Z,16.98
2024-03-01T12:39:24.225Z,16.83
2024-03-01T12:42:07.145Z,13.48
2024-03-01T12:44:48.488Z,16.33
2024-03-01T12:47:49.843Z,16.65
2024-03-01T12:50:31.748Z,16.55
2024-03-01T12:53:21.220Z,15.30
2024-03-01T12:56:00.993Z,14.13
2024-03-01T12:58:40.557Z,12.73
2024-03-01T13:01:22.594Z,14.13
2024-03-01T13:04:10.482Z,7.97
2024-03-01T13:06:40.652Z,9.55
2024-03-01T13:09:16.172Z,16.27
2024-03-01T13:11:48.049Z,15.95
2024-03-01T13:14:27.879Z,11.60
2024-03-01T13:17:23.841Z,11.02
2024-03-01T13:20:13.357Z,15.43
2024-03-01T13:22:48.205Z,13.30
2024-03-01T13:25:25.556Z,14.63
2024-03-01T13:28:07.748Z,13.90
2024-03-01T13:30:41.317Z,14.05
2024-03-01T13:33:26.598Z,13.85
2024-03-01T13:36:12.521Z,12.65
2024-03-01T13:38:52.187Z,12.93
2024-03-01T13:41:29.653Z,12.10
2024-03-01T13:44:11.771Z,12.02
2024-03-01T13:46:43.303Z,11.55
2024-03-01T13:49:19.126Z,10.60
2024-03-01T13:54:24.401Z,10.90
2024-03-01T13:56:55.640Z,10.00
2024-03-01T13:59:25.600Z,11.38
2024-03-01T14:01:55.938Z,8.73
2024-03-01T14:04:26.421Z,10.35
2024-03-01T14:06:59.288Z,9.70
2024-03-01T14:09:29.587Z,9.90
2024-03-01T14:12:00.865Z,8.02
2024-03-01T14:14:31.298Z,10.48
2024-03-01T14:17:01.453Z,10.02
2024-03-01T14:19:31.699Z,10.35
2024-03-01T14:22:05.897Z,8.88
2024-03-01T14:24:37.780Z,10.25
2024-03-01T14:27:08.650Z,9.85
2024-03-01T14:29:38.816Z,9.77
2024-03-01T14:32:15.564Z,6.95
2024-03-01T14:34:45.681Z,10.30
2024-03-01T14:37:29.792Z,9.75
2024-03-01T14:40:11.514Z,9.48
2024-03-01T14:42:42.439Z,8.13
2024-03-01T14:45:23.039Z,7.10
2024-03-01T14:47:58.205Z,9.18
2024-03-01T14:50:31.331Z,8.10
2024-03-01T14:53:10.477Z,9.75
2024-03-01T14:55:40.722Z,9.60
2024-03-01T14:58:11.005Z,9.15
2024-03-01T15:00:41.215Z,8.60
2024-03-01T15:03:11.210Z,7.68
2024-03-01T15:05:41.336Z,9.32
2024-03-01T15:08:14.503Z,9.93
2024-03-01T15:10:44.646Z,7.50
2024-03-01T15:13:15.085Z,8.57
2024-03-01T15:15:48.996Z,7.07
2024-03-01T15:18:22.353Z,8.93
2024-03-01T15:20:54.844Z,8.38
2024-03-01T15:23:27.894Z,6.97
2024-03-01T15:26:07.829Z,7.88
2024-03-01T15:28:48.152Z,8.27
2024-03-01T15:31:24.265Z,9.20
2024-03-01T15:33:55.160Z,9.15
2024-03-01T15:36:25.200Z,6.57
2024-03-01T15:38:58.431Z,9.35
2024-03-01T15:41:35.045Z,9.30
2024-03-01T15:44:07.613Z,9.35
2024-03-01T15:46:38.486Z,8.93
2024-03-01T15:49:11.377Z,7.85
2024-03-01T15:51:41.575Z,9.05
2024-03-01T15:54:15.676Z,9.32
2024-03-01T15:56:45.955Z,8.65
2024-03-01T15:59:16.214Z,6.90
2024-03-01T16:01:46.580Z,7.97
2024-03-01T16:04:16.694Z,9.02
2024-03-01T16:06:49.811Z,8.45
2024-03-01T16:09:24.113Z,7.85
2024-03-01T16:11:54.693Z,6.28
2024-03-01T16:14:25.004Z,9.38
2024-03-01T16:16:54.989Z,9.10
2024-03-01T16:19:25.098Z,7.97
2024-03-01T16:21:56.243Z,9.57
2024-03-01T16:24:29.070Z,9.43
2024-03-01T16:27:01.537Z,12.25
2024-03-01T16:29:35.490Z,13.07
2024-03-01T16:32:11.273Z,12.63
2024-03-01T16:34:42.438Z,10.50
2024-03-01T16:37:13.315Z,14.68
2024-03-01T16:39:46.135Z,13.70
2024-03-01T16:42:42.992Z,17.75
2024-03-01T16:47:51.405Z,8.60
2024-03-01T16:50:21.898Z,13.07
2024-03-01T16:52:52.684Z,12.57
2024-03-01T16:55:49.012Z,10.48
2024-03-01T16:58:21.291Z,9.73
2024-03-01T17:00:52.359Z,9.68
2024-03-01T17:03:34.099Z,7.05
2024-03-01T17:06:07.179Z,5.30
2024-03-01T17:08:39.530Z,5.40
2024-03-01T17:11:14.291Z,7.53
2024-03-01T17:13:45.675Z,6.10
2024-03-01T17:19:50.573Z,9.75
2024-03-01T17:23:02.515Z,10.27
2024-03-01T17:59:17.935Z,12.30
2024-03-01T18:01:49.574Z,8.40
2024-03-01T18:04:21.549Z,11.05
2024-03-01T18:07:32.630Z,14.57
2024-03-01T18:11:03.495Z,13.43
2024-03-01T18:13:57.928Z,18.08
2024-03-01T18:16:47.128Z,18.23
2024-03-01T18:19:56.298Z,16.88
2024-03-01T18:23:12.699Z,16.33
2024-03-01T18:25:57.469Z,16.95
2024-03-01T18:28:28.011Z,16.20
2024-03-01T18:31:00.510Z,16.83
2024-03-01T18:33:34.436Z,15.00
2024-03-01T18:36:04.606Z,18.92
2024-03-01T18:38:35.799Z,15.43
2024-03-01T18:41:08.741Z,19.42
2024-03-01T18:43:40.150Z,19.15
2024-03-01T18:46:11.450Z,19.83
2024-03-01T18:48:44.028Z,18.30
2024-03-01T18:51:14.774Z,17.73
2024-03-01T18:53:44.861Z,16.38
2024-03-01T18:56:19.903Z,20.13
2024-03-01T18:58:50.110Z,19.25
2024-03-01T19:01:20.449Z,20.95
2024-03-01T19:03:54.997Z,15.48
2024-03-01T19:06:26.551Z,21.00
2024-03-01T19:08:57.838Z,21.42
2024-03-01T19:11:32.015Z,22.52
2024-03-01T19:14:02.078Z,23.13
2024-03-01T19:16:32.844Z,22.20
2024-03-01T19:19:06.222Z,22.17
2024-03-01T19:21:37.988Z,21.75
2024-03-01T19:24:09.370Z,22.98
2024-03-01T19:26:40.353Z,22.45
2024-03-01T19:29:10.399Z,22.75
2024-03-01T19:31:40.592Z,21.40
2024-03-01T19:34:13.167Z,22.45
2024-03-01T19:36:44.732Z,23.15
2024-03-01T19:39:14.781Z,24.35
2024-03-01T19:41:45.815Z,21.25
2024-03-01T19:44:18.723Z,19.58
2024-03-01T19:46:49.165Z,25.67
2024-03-01T19:49:22.067Z,27.60
2024-03-01T19:51:52.417Z,27.58
2024-03-01T19:54:25.679Z,28.35
2024-03-01T19:56:56.069Z,28.63
2024-03-01T19:59:26.112Z,28.58
2024-03-01T20:01:56.202Z,30.92
2024-03-01T20:04:29.841Z,28.88
2024-03-01T20:07:00.601Z,28.85
2024-03-01T20:09:32.128Z,26.58
2024-03-01T20:12:02.128Z,25.92
2024-03-01T20:14:35.854Z,20.73
2024-03-01T20:17:08.975Z,26.63
2024-03-01T20:19:42.193Z,27.60
2024-03-01T20:22:12.616Z,27.02
2024-03-01T20:24:42.750Z,25.08
2024-03-01T20:27:17.609Z,28.48
2024-03-01T20:29:49.695Z,26.30
2024-03-01T20:32:23.131Z,27.65
2024-03-01T20:34:55.952Z,24.70
2024-03-01T20:37:27.222Z,29.15
2024-03-01T20:39:57.344Z,26.63
2024-03-01T20:42:27.374Z,28.70
2024-03-01T20:44:59.759Z,27.55
2024-03-01T20:47:30.187Z,29.83
2024-03-01T20:50:05.101Z,30.77
2024-03-01T20:52:36.146Z,27.77
2024-03-01T20:55:08.957Z,31.38
2024-03-01T20:57:39.268Z,30.15
2024-03-01T21:00:12.405Z,31.55
2024-03-01T21:02:42.452Z,33.10
2024-03-01T21:05:15.463Z,33.72
2024-03-01T21:07:46.605Z,28.95
2024-03-01T21:10:17.134Z,32.28
2024-03-01T21:12:47.147Z,29.52
2024-03-01T21:15:17.156Z,34.95
2024-03-01T21:17:50.730Z,32.60
2024-03-01T21:20:24.133Z,32.90
2024-03-01T21:22:55.796Z,29.17
2024-03-01T21:25:27.054Z,32.10
2024-03-01T21:27:59.250Z,33.75
2024-03-01T21:30:30.021Z,31.30
2024-03-01T21:33:02.542Z,32.40
2024-03-01T21:35:38.091Z,31.73
2024-03-01T21:38:08.772Z,30.00
2024-03-01T21:48:11.414Z,30.15
2024-03-01T22:40:45.571Z,31.25
2024-03-01T22:43:15.656Z,34.13
2024-03-01T22:45:46.173Z,33.05
2024-03-01T22:48:16.358Z,32.95
2024-03-01T22:50:47.652Z,28.33
2024-03-01T22:53:23.623Z,31.63
2024-03-01T22:55:56.681Z,31.50
2024-03-01T22:58:38.238Z,33.40
2024-03-01T23:01:09.671Z,30.08
2024-03-01T23:03:44.653Z,35.03
2024-03-01T23:06:18.482Z,34.85
2024-03-01T23:08:56.321Z,35.15
2024-03-01T23:11:41.163Z,35.15
2024-03-01T23:14:43.870Z,33.72
2024-03-01T23:17:14.914Z,34.30
2024-03-01T23:19:45.852Z,36.25
2024-03-01T23:22:17.924Z,36.60
2024-03-01T23:24:48.352Z,35.08
2024-03-01T23:27:21.389Z,35.38
2024-03-01T23:29:52.497Z,37.80
2024-03-01T23:32:22.876Z,39.38
2024-03-01T23:34:52.993Z,36.50
2024-03-01T23:37:23.169Z,33.03
2024-03-01T23:39:53.309Z,30.52
2024-03-01T23:42:26.071Z,33.30
2024-03-01T23:44:56.238Z,36.90
2024-03-01T23:47:26.282Z,37.35
2024-03-01T23:49:56.283Z,34.70
2024-03-01T23:52:26.250Z,33.58
2024-03-01T23:54:56.377Z,34.78
2024-03-01T23:57:29.155Z,31.65
2024-03-01T23:59:59.463Z,31.58
